sensor_id;sensor_type;location;lat;lon;timestamp;pressure;altitude;pressure_sealevel;temperature;humidity
29379;BME280;16362;47.202;15.258;2022-07-06T00:01:50;96445.22;;;14.09;100.00
29379;BME280;16362;47.202;15.258;2022-07-06T00:04:18;96440.88;;;14.08;100.00
29379;BME280;16362;47.202;15.258;2022-07-06T00:06:46;96448.09;;;14.08;100.00
29379;BME280;16362;47.202;15.258;2022-07-06T00:09:13;96444.41;;;14.09;100.00
29379;BME280;16362;47.202;15.258;2022-07-06T00:11:40;96441.28;;;14.05;100.00
29379;BME280;16362;47.202;15.258;2022-07-06T00:14:06;96444.34;;;14.02;100.00
29379;BME280;16362;47.202;15.258;2022-07-06T00:16:33;96445.56;;;14.00;100.00
29379;BME280;16362;47.202;15.258;2022-07-06T00:19:00;96448.88;;;14.02;100.00
29379;BME280;16362;47.202;15.258;2022-07-06T00:21:27;96454.06;;;14.03;100.00
29379;BME280;16362;47.202;15.258;2022-07-06T00:23:54;96453.47;;;14.08;100.00
29379;BME280;16362;47.202;15.258;2022-07-06T00:26:20;96450.59;;;14.09;100.00
29379;BME280;16362;47.202;15.258;2022-07-06T00:28:47;96460.50;;;14.09;100.00
29379;BME280;16362;47.202;15.258;2022-07-06T00:31:14;96462.13;;;14.03;100.00
29379;BME280;16362;47.202;15.258;2022-07-06T00:33:41;96468.50;;;14.02;100.00
29379;BME280;16362;47.202;15.258;2022-07-06T00:36:07;96465.63;;;14.04;100.00
29379;BME280;16362;47.202;15.258;2022-07-06T00:38:34;96462.94;;;14.04;100.00
29379;BME280;16362;47.202;15.258;2022-07-06T00:41:01;96460.44;;;14.02;100.00
29379;BME280;16362;47.202;15.258;2022-07-06T00:43:28;96458.97;;;14.00;100.00
29379;BME280;16362;47.202;15.258;2022-07-06T00:45:55;96464.34;;;14.00;100.00
29379;BME280;16362;47.202;15.258;2022-07-06T00:48:21;96469.25;;;13.96;100.00
29379;BME280;16362;47.202;15.258;2022-07-06T00:50:49;96466.94;;;13.93;100.00
29379;BME280;16362;47.202;15.258;2022-07-06T00:53:16;96468.56;;;13.87;100.00
29379;BME280;16362;47.202;15.258;2022-07-06T00:55:42;96472.63;;;13.83;100.00
29379;BME280;16362;47.202;15.258;2022-07-06T00:58:09;96473.84;;;13.80;100.00
29379;BME280;16362;47.202;15.258;2022-07-06T01:00:36;96478.34;;;13.80;100.00
29379;BME280;16362;47.202;15.258;2022-07-06T01:03:04;96477.72;;;13.78;100.00
29379;BME280;16362;47.202;15.258;2022-07-06T01:05:30;96474.78;;;13.73;100.00
29379;BME280;16362;47.202;15.258;2022-07-06T01:07:57;96483.22;;;13.70;100.00
29379;BME280;16362;47.202;15.258;2022-07-06T01:10:24;96486.81;;;13.62;100.00
29379;BME280;16362;47.202;15.258;2022-07-06T01:12:51;96488.81;;;13.53;100.00
29379;BME280;16362;47.202;15.258;2022-07-06T01:15:21;96488.53;;;13.48;100.00
29379;BME280;16362;47.202;15.258;2022-07-06T01:17:49;96484.56;;;13.44;100.00
29379;BME280;16362;47.202;15.258;2022-07-06T01:20:23;96486.84;;;13.47;100.00
29379;BME280;16362;47.202;15.258;2022-07-06T01:22:51;96494.91;;;13.47;100.00
29379;BME280;16362;47.202;15.258;2022-07-06T01:25:19;96489.91;;;13.44;100.00
29379;BME280;16362;47.202;15.258;2022-07-06T01:27:47;96483.72;;;13.43;100.00
29379;BME280;16362;47.202;15.258;2022-07-06T01:30:17;96482.06;;;13.42;100.00
29379;BME280;16362;47.202;15.258;2022-07-06T01:32:44;96478.25;;;13.37;100.00
29379;BME280;16362;47.202;15.258;2022-07-06T01:35:13;96481.09;;;13.35;100.00
29379;BME280;16362;47.202;15.258;2022-07-06T01:37:41;96487.50;;;13.34;100.00
29379;BME280;16362;47.202;15.258;2022-07-06T01:40:10;96485.84;;;13.33;100.00
29379;BME280;16362;47.202;15.258;2022-07-06T01:42:38;96475.31;;;13.31;100.00
29379;BME280;16362;47.202;15.258;2022-07-06T01:45:06;96467.25;;;13.31;100.00
29379;BME280;16362;47.202;15.258;2022-07-06T01:47:33;96467.88;;;13.34;100.00
29379;BME280;16362;47.202;15.258;2022-07-06T01:50:06;96469.09;;;13.31;100.00
29379;BME280;16362;47.202;15.258;2022-07-06T01:52:33;96486.84;;;13.32;100.00
29379;BME280;16362;47.202;15.258;2022-07-06T01:55:00;96484.72;;;13.27;100.00
29379;BME280;16362;47.202;15.258;2022-07-06T01:57:27;96485.09;;;13.24;100.00
29379;BME280;16362;47.202;15.258;2022-07-06T01:59:53;96488.97;;;13.22;100.00
29379;BME280;16362;47.202;15.258;2022-07-06T02:02:20;96491.84;;;13.20;100.00
29379;BME280;16362;47.202;15.258;2022-07-06T02:04:47;96488.16;;;13.21;100.00
29379;BME280;16362;47.202;15.258;2022-07-06T02:07:14;96494.91;;;13.17;100.00
29379;BME280;16362;47.202;15.258;2022-07-06T02:09:40;96496.91;;;13.15;100.00
29379;BME280;16362;47.202;15.258;2022-07-06T02:12:07;96507.00;;;13.13;100.00
29379;BME280;16362;47.202;15.258;2022-07-06T02:14:34;96503.31;;;13.14;100.00
29379;BME280;16362;47.202;15.258;2022-07-06T02:17:00;96515.03;;;13.13;100.00
29379;BME280;16362;47.202;15.258;2022-07-06T02:19:27;96506.34;;;13.11;100.00
29379;BME280;16362;47.202;15.258;2022-07-06T02:21:54;96507.56;;;13.08;100.00
29379;BME280;16362;47.202;15.258;2022-07-06T02:24:21;96506.72;;;13.08;100.00
29379;BME280;16362;47.202;15.258;2022-07-06T02:26:48;96506.91;;;13.06;100.00
29379;BME280;16362;47.202;15.258;2022-07-06T02:29:14;96511.59;;;13.04;100.00
29379;BME280;16362;47.202;15.258;2022-07-06T02:31:41;96514.47;;;13.03;100.00
29379;BME280;16362;47.202;15.258;2022-07-06T02:34:08;96513.66;;;13.02;100.00
29379;BME280;16362;47.202;15.258;2022-07-06T02:36:35;96509.47;;;13.00;100.00
29379;BME280;16362;47.202;15.258;2022-07-06T02:39:02;96506.19;;;12.97;100.00
29379;BME280;16362;47.202;15.258;2022-07-06T02:41:28;96500.34;;;12.94;100.00
29379;BME280;16362;47.202;15.258;2022-07-06T02:43:55;96508.19;;;12.95;100.00
29379;BME280;16362;47.202;15.258;2022-07-06T02:46:22;96506.53;;;12.94;100.00
29379;BME280;16362;47.202;15.258;2022-07-06T02:48:48;96503.22;;;12.92;100.00
29379;BME280;16362;47.202;15.258;2022-07-06T02:51:15;96505.88;;;12.92;100.00
29379;BME280;16362;47.202;15.258;2022-07-06T02:53:42;96520.91;;;12.93;100.00
29379;BME280;16362;47.202;15.258;2022-07-06T02:56:09;96503.22;;;12.92;100.00
29379;BME280;16362;47.202;15.258;2022-07-06T02:58:35;96509.75;;;12.90;100.00
29379;BME280;16362;47.202;15.258;2022-07-06T03:01:02;96508.91;;;12.89;100.00
29379;BME280;16362;47.202;15.258;2022-07-06T03:03:29;96509.94;;;12.88;100.00
29379;BME280;16362;47.202;15.258;2022-07-06T03:05:56;96507.91;;;12.90;100.00
29379;BME280;16362;47.202;15.258;2022-07-06T03:08:23;96504.84;;;12.93;100.00
29379;BME280;16362;47.202;15.258;2022-07-06T03:10:50;96505.88;;;12.92;100.00
29379;BME280;16362;47.202;15.258;2022-07-06T03:13:17;96507.38;;;12.95;100.00
29379;BME280;16362;47.202;15.258;2022-07-06T03:15:44;96511.88;;;12.94;100.00
29379;BME280;16362;47.202;15.258;2022-07-06T03:18:10;96503.84;;;12.94;100.00
29379;BME280;16362;47.202;15.258;2022-07-06T03:20:37;96500.72;;;12.91;100.00
29379;BME280;16362;47.202;15.258;2022-07-06T03:23:04;96503.22;;;12.92;100.00
29379;BME280;16362;47.202;15.258;2022-07-06T03:25:31;96507.91;;;12.90;100.00
29379;BME280;16362;47.202;15.258;2022-07-06T03:27:59;96508.56;;;12.92;100.00
29379;BME280;16362;47.202;15.258;2022-07-06T03:30:26;96509.19;;;12.94;100.00
29379;BME280;16362;47.202;15.258;2022-07-06T03:32:53;96503.66;;;12.96;100.00
29379;BME280;16362;47.202;15.258;2022-07-06T03:35:19;96510.16;;;13.02;100.00
29379;BME280;16362;47.202;15.258;2022-07-06T03:37:46;96508.47;;;13.01;100.00
29379;BME280;16362;47.202;15.258;2022-07-06T03:40:13;96507.91;;;13.05;100.00
29379;BME280;16362;47.202;15.258;2022-07-06T03:42:41;96504.03;;;13.08;100.00
29379;BME280;16362;47.202;15.258;2022-07-06T03:45:08;96500.34;;;13.09;100.00
29379;BME280;16362;47.202;15.258;2022-07-06T03:47:35;96501.81;;;13.11;100.00
29379;BME280;16362;47.202;15.258;2022-07-06T03:50:02;96498.97;;;13.13;100.00
29379;BME280;16362;47.202;15.258;2022-07-06T03:52:29;96496.75;;;13.17;100.00
29379;BME280;16362;47.202;15.258;2022-07-06T03:54:56;96492.94;;;13.11;100.00
29379;BME280;16362;47.202;15.258;2022-07-06T03:57:23;96491.75;;;13.13;100.00
29379;BME280;16362;47.202;15.258;2022-07-06T03:59:49;96494.91;;;13.17;100.00
29379;BME280;16362;47.202;15.258;2022-07-06T04:02:16;96499.06;;;13.20;100.00
29379;BME280;16362;47.202;15.258;2022-07-06T04:04:43;96499.16;;;13.26;100.00
29379;BME280;16362;47.202;15.258;2022-07-06T04:07:10;96496.91;;;13.30;100.00
29379;BME280;16362;47.202;15.258;2022-07-06T04:09:37;96497.66;;;13.24;100.00
29379;BME280;16362;47.202;15.258;2022-07-06T04:12:03;96489.91;;;13.29;100.00
29379;BME280;16362;47.202;15.258;2022-07-06T04:14:30;96498.88;;;13.36;100.00
29379;BME280;16362;47.202;15.258;2022-07-06T04:16:57;96492.22;;;13.32;100.00
29379;BME280;16362;47.202;15.258;2022-07-06T04:19:24;96489.84;;;13.37;100.00
29379;BME280;16362;47.202;15.258;2022-07-06T04:21:51;96490.84;;;13.36;100.00
29379;BME280;16362;47.202;15.258;2022-07-06T04:24:17;96488.97;;;13.37;100.00
29379;BME280;16362;47.202;15.258;2022-07-06T04:26:44;96494.34;;;13.37;100.00
29379;BME280;16362;47.202;15.258;2022-07-06T04:29:11;96489.34;;;13.34;100.00
29379;BME280;16362;47.202;15.258;2022-07-06T04:31:37;96496.88;;;13.38;100.00
29379;BME280;16362;47.202;15.258;2022-07-06T04:34:04;96493.16;;;13.39;100.00
29379;BME280;16362;47.202;15.258;2022-07-06T04:36:31;96499.53;;;13.38;100.00
29379;BME280;16362;47.202;15.258;2022-07-06T04:38:58;96501.00;;;13.41;100.00
29379;BME280;16362;47.202;15.258;2022-07-06T04:41:25;96501.84;;;13.41;100.00
29379;BME280;16362;47.202;15.258;2022-07-06T04:43:52;96491.59;;;13.45;100.00
29379;BME280;16362;47.202;15.258;2022-07-06T04:46:19;96504.34;;;13.43;100.00
29379;BME280;16362;47.202;15.258;2022-07-06T04:48:46;96500.75;;;13.36;100.00
29379;BME280;16362;47.202;15.258;2022-07-06T04:51:13;96512.09;;;13.38;100.00
29379;BME280;16362;47.202;15.258;2022-07-06T04:53:40;96507.59;;;13.38;100.00
29379;BME280;16362;47.202;15.258;2022-07-06T04:56:07;96509.59;;;13.36;100.00
29379;BME280;16362;47.202;15.258;2022-07-06T04:58:34;96504.91;;;13.38;100.00
29379;BME280;16362;47.202;15.258;2022-07-06T05:01:00;96498.69;;;13.38;100.00
29379;BME280;16362;47.202;15.258;2022-07-06T05:03:27;96507.91;;;13.35;100.00
29379;BME280;16362;47.202;15.258;2022-07-06T05:05:54;96509.97;;;13.48;100.00
29379;BME280;16362;47.202;15.258;2022-07-06T05:08:21;96499.16;;;13.93;100.00
29379;BME280;16362;47.202;15.258;2022-07-06T05:10:49;96498.44;;;14.49;100.00
29379;BME280;16362;47.202;15.258;2022-07-06T05:13:15;96493.47;;;14.96;100.00
29379;BME280;16362;47.202;15.258;2022-07-06T05:15:42;96486.31;;;15.52;100.00
29379;BME280;16362;47.202;15.258;2022-07-06T05:18:09;96493.75;;;16.05;100.00
29379;BME280;16362;47.202;15.258;2022-07-06T05:20:36;96497.75;;;16.36;100.00
29379;BME280;16362;47.202;15.258;2022-07-06T05:23:02;96483.06;;;16.78;100.00
29379;BME280;16362;47.202;15.258;2022-07-06T05:25:29;96488.25;;;16.73;100.00
29379;BME280;16362;47.202;15.258;2022-07-06T05:27:57;96492.59;;;17.21;100.00
29379;BME280;16362;47.202;15.258;2022-07-06T05:30:24;96483.56;;;17.54;100.00
29379;BME280;16362;47.202;15.258;2022-07-06T05:32:50;96479.50;;;17.83;98.66
29379;BME280;16362;47.202;15.258;2022-07-06T05:35:17;96472.50;;;18.14;96.84
29379;BME280;16362;47.202;15.258;2022-07-06T05:38:04;96480.56;;;18.46;95.36
29379;BME280;16362;47.202;15.258;2022-07-06T05:40:31;96477.03;;;18.71;93.80
29379;BME280;16362;47.202;15.258;2022-07-06T05:42:58;96479.31;;;18.99;91.89
29379;BME280;16362;47.202;15.258;2022-07-06T05:45:24;96475.75;;;19.24;90.57
29379;BME280;16362;47.202;15.258;2022-07-06T05:47:51;96479.22;;;19.31;88.67
29379;BME280;16362;47.202;15.258;2022-07-06T05:50:36;96478.31;;;19.38;88.29
29379;BME280;16362;47.202;15.258;2022-07-06T05:53:04;96482.81;;;19.44;87.08
29379;BME280;16362;47.202;15.258;2022-07-06T05:55:44;96470.97;;;19.01;88.60
29379;BME280;16362;47.202;15.258;2022-07-06T05:58:11;96475.75;;;19.24;90.04
29379;BME280;16362;47.202;15.258;2022-07-06T06:00:38;96479.34;;;19.55;88.55
29379;BME280;16362;47.202;15.258;2022-07-06T06:03:05;96478.00;;;19.83;87.22
29379;BME280;16362;47.202;15.258;2022-07-06T06:05:32;96478.88;;;19.95;82.48
29379;BME280;16362;47.202;15.258;2022-07-06T06:07:59;96476.41;;;19.94;84.64
29379;BME280;16362;47.202;15.258;2022-07-06T06:10:26;96475.72;;;19.98;80.94
29379;BME280;16362;47.202;15.258;2022-07-06T06:12:53;96481.22;;;20.22;82.78
29379;BME280;16362;47.202;15.258;2022-07-06T06:15:19;96474.09;;;20.40;82.11
29379;BME280;16362;47.202;15.258;2022-07-06T06:17:46;96484.28;;;20.68;81.95
29379;BME280;16362;47.202;15.258;2022-07-06T06:20:14;96476.09;;;20.75;81.09
29379;BME280;16362;47.202;15.258;2022-07-06T06:22:52;96473.59;;;20.97;80.62
29379;BME280;16362;47.202;15.258;2022-07-06T06:25:54;96473.25;;;21.17;80.17
29379;BME280;16362;47.202;15.258;2022-07-06T06:28:14;96475.25;;;21.57;81.14
29379;BME280;16362;47.202;15.258;2022-07-06T06:30:40;96485.22;;;21.80;77.18
29379;BME280;16362;47.202;15.258;2022-07-06T06:33:16;96476.69;;;22.17;79.71
29379;BME280;16362;47.202;15.258;2022-07-06T06:35:45;96479.19;;;22.48;77.14
29379;BME280;16362;47.202;15.258;2022-07-06T06:38:12;96476.88;;;22.57;73.69
29379;BME280;16362;47.202;15.258;2022-07-06T06:40:39;96477.72;;;22.57;70.46
29379;BME280;16362;47.202;15.258;2022-07-06T06:43:06;96475.44;;;22.37;72.69
29379;BME280;16362;47.202;15.258;2022-07-06T06:45:33;96474.31;;;22.50;73.45
29379;BME280;16362;47.202;15.258;2022-07-06T06:48:00;96480.19;;;22.59;75.56
29379;BME280;16362;47.202;15.258;2022-07-06T06:50:27;96474.06;;;22.68;73.22
29379;BME280;16362;47.202;15.258;2022-07-06T06:52:54;96471.34;;;22.68;72.02
29379;BME280;16362;47.202;15.258;2022-07-06T06:55:21;96472.19;;;22.86;73.51
29379;BME280;16362;47.202;15.258;2022-07-06T06:57:48;96463.94;;;23.15;72.83
29379;BME280;16362;47.202;15.258;2022-07-06T07:00:15;96462.03;;;22.98;69.88
29379;BME280;16362;47.202;15.258;2022-07-06T07:02:42;96466.31;;;22.94;71.29
29379;BME280;16362;47.202;15.258;2022-07-06T07:05:09;96465.59;;;23.16;72.52
29379;BME280;16362;47.202;15.258;2022-07-06T07:07:36;96469.03;;;23.28;72.31
29379;BME280;16362;47.202;15.258;2022-07-06T07:10:04;96466.09;;;23.52;73.68
29379;BME280;16362;47.202;15.258;2022-07-06T07:12:31;96462.53;;;23.51;70.32
29379;BME280;16362;47.202;15.258;2022-07-06T07:15:00;96468.59;;;23.36;71.29
29379;BME280;16362;47.202;15.258;2022-07-06T07:17:27;96460.88;;;22.94;73.10
29379;BME280;16362;47.202;15.258;2022-07-06T07:19:53;96468.47;;;22.92;74.97
29379;BME280;16362;47.202;15.258;2022-07-06T07:22:22;96467.28;;;23.05;74.64
29379;BME280;16362;47.202;15.258;2022-07-06T07:24:49;96469.84;;;23.12;74.56
29379;BME280;16362;47.202;15.258;2022-07-06T07:27:15;96463.50;;;23.06;75.86
29379;BME280;16362;47.202;15.258;2022-07-06T07:29:42;96465.06;;;23.19;74.73
29379;BME280;16362;47.202;15.258;2022-07-06T07:32:09;96460.84;;;23.28;72.69
29379;BME280;16362;47.202;15.258;2022-07-06T07:34:36;96460.75;;;23.62;71.16
29379;BME280;16362;47.202;15.258;2022-07-06T07:37:03;96455.59;;;23.88;74.37
29379;BME280;16362;47.202;15.258;2022-07-06T07:39:29;96454.19;;;24.02;68.96
29379;BME280;16362;47.202;15.258;2022-07-06T07:41:56;96450.28;;;24.48;69.65
29379;BME280;16362;47.202;15.258;2022-07-06T07:44:23;96458.47;;;24.53;70.16
29379;BME280;16362;47.202;15.258;2022-07-06T07:46:51;96453.78;;;24.16;65.29
29379;BME280;16362;47.202;15.258;2022-07-06T07:49:19;96454.28;;;24.40;61.18
29379;BME280;16362;47.202;15.258;2022-07-06T07:51:50;96459.25;;;24.76;59.59
29379;BME280;16362;47.202;15.258;2022-07-06T07:54:17;96463.25;;;25.00;60.54
29379;BME280;16362;47.202;15.258;2022-07-06T07:56:44;96465.84;;;25.17;52.15
29379;BME280;16362;47.202;15.258;2022-07-06T07:59:11;96459.19;;;25.46;52.67
29379;BME280;16362;47.202;15.258;2022-07-06T08:01:38;96452.69;;;25.52;49.92
29379;BME280;16362;47.202;15.258;2022-07-06T08:04:05;96446.13;;;25.10;50.22
29379;BME280;16362;47.202;15.258;2022-07-06T08:06:32;96444.56;;;25.19;45.87
29379;BME280;16362;47.202;15.258;2022-07-06T08:08:59;96451.00;;;25.46;47.97
29379;BME280;16362;47.202;15.258;2022-07-06T08:11:26;96455.22;;;25.69;44.39
29379;BME280;16362;47.202;15.258;2022-07-06T08:13:53;96454.91;;;25.65;40.31
29379;BME280;16362;47.202;15.258;2022-07-06T08:16:19;96444.63;;;25.88;41.93
29379;BME280;16362;47.202;15.258;2022-07-06T08:18:46;96441.88;;;25.78;41.45
29379;BME280;16362;47.202;15.258;2022-07-06T08:21:13;96450.94;;;25.99;41.81
29379;BME280;16362;47.202;15.258;2022-07-06T08:23:51;96446.00;;;25.96;44.25
29379;BME280;16362;47.202;15.258;2022-07-06T08:26:18;96455.53;;;25.78;42.54
29379;BME280;16362;47.202;15.258;2022-07-06T08:28:45;96447.34;;;25.78;43.10
29379;BME280;16362;47.202;15.258;2022-07-06T08:31:13;96448.41;;;25.77;44.13
29379;BME280;16362;47.202;15.258;2022-07-06T08:34:00;96456.03;;;25.75;44.19
29379;BME280;16362;47.202;15.258;2022-07-06T08:36:27;96455.38;;;25.47;42.61
29379;BME280;16362;47.202;15.258;2022-07-06T08:38:54;96450.44;;;25.44;40.43
29379;BME280;16362;47.202;15.258;2022-07-06T08:41:24;96453.00;;;25.18;40.53
29379;BME280;16362;47.202;15.258;2022-07-06T08:43:52;96454.25;;;25.00;38.85
29379;BME280;16362;47.202;15.258;2022-07-06T08:46:20;96450.66;;;24.94;38.77
29379;BME280;16362;47.202;15.258;2022-07-06T08:48:48;96449.72;;;24.78;39.22
29379;BME280;16362;47.202;15.258;2022-07-06T08:51:16;96445.75;;;24.96;42.13
29379;BME280;16362;47.202;15.258;2022-07-06T08:53:44;96451.94;;;25.24;43.69
29379;BME280;16362;47.202;15.258;2022-07-06T08:56:12;96456.59;;;25.24;41.03
29379;BME280;16362;47.202;15.258;2022-07-06T08:58:39;96452.06;;;25.39;43.74
29379;BME280;16362;47.202;15.258;2022-07-06T09:01:10;96452.06;;;25.34;39.50
29379;BME280;16362;47.202;15.258;2022-07-06T09:03:42;96446.63;;;25.45;40.23
29379;BME280;16362;47.202;15.258;2022-07-06T09:06:10;96456.22;;;25.52;42.14
29379;BME280;16362;47.202;15.258;2022-07-06T09:08:43;96457.00;;;25.48;40.54
29379;BME280;16362;47.202;15.258;2022-07-06T09:11:11;96464.44;;;25.52;39.33
29379;BME280;16362;47.202;15.258;2022-07-06T09:13:38;96453.00;;;25.61;39.12
29379;BME280;16362;47.202;15.258;2022-07-06T09:16:12;96457.00;;;25.48;39.32
29379;BME280;16362;47.202;15.258;2022-07-06T09:18:59;96458.16;;;25.52;40.37
29379;BME280;16362;47.202;15.258;2022-07-06T09:21:29;96459.56;;;25.65;40.22
29379;BME280;16362;47.202;15.258;2022-07-06T09:24:01;96454.09;;;25.65;38.47
29379;BME280;16362;47.202;15.258;2022-07-06T09:26:31;96458.19;;;25.62;38.88
29379;BME280;16362;47.202;15.258;2022-07-06T09:28:58;96462.03;;;25.66;39.14
29379;BME280;16362;47.202;15.258;2022-07-06T09:31:28;96448.97;;;25.74;41.24
29379;BME280;16362;47.202;15.258;2022-07-06T09:33:55;96449.25;;;25.82;39.73
29379;BME280;16362;47.202;15.258;2022-07-06T09:36:45;96459.94;;;25.89;39.86
29379;BME280;16362;47.202;15.258;2022-07-06T09:41:50;96451.59;;;25.58;35.36
29379;BME280;16362;47.202;15.258;2022-07-06T09:44:37;96454.22;;;25.96;40.80
29379;BME280;16362;47.202;15.258;2022-07-06T09:47:07;96461.31;;;26.02;36.80
29379;BME280;16362;47.202;15.258;2022-07-06T09:49:36;96458.56;;;25.86;41.35
29379;BME280;16362;47.202;15.258;2022-07-06T09:52:06;96458.59;;;25.97;40.53
29379;BME280;16362;47.202;15.258;2022-07-06T09:54:34;96461.69;;;26.16;39.72
29379;BME280;16362;47.202;15.258;2022-07-06T09:57:01;96446.13;;;26.27;35.98
29379;BME280;16362;47.202;15.258;2022-07-06T09:59:34;96445.25;;;26.11;40.09
29379;BME280;16362;47.202;15.258;2022-07-06T10:02:04;96457.00;;;26.11;36.17
29379;BME280;16362;47.202;15.258;2022-07-06T10:04:32;96451.00;;;26.09;32.56
29379;BME280;16362;47.202;15.258;2022-07-06T10:06:59;96458.56;;;25.86;39.89
29379;BME280;16362;47.202;15.258;2022-07-06T10:09:28;96454.53;;;26.04;39.56
29379;BME280;16362;47.202;15.258;2022-07-06T10:11:59;96444.75;;;26.24;34.73
29379;BME280;16362;47.202;15.258;2022-07-06T10:14:32;96443.69;;;26.66;41.49
29379;BME280;16362;47.202;15.258;2022-07-06T10:17:00;96442.31;;;26.69;37.70
29379;BME280;16362;47.202;15.258;2022-07-06T10:19:29;96444.78;;;26.60;37.49
29379;BME280;16362;47.202;15.258;2022-07-06T10:21:59;96446.47;;;26.71;36.29
29379;BME280;16362;47.202;15.258;2022-07-06T10:24:27;96440.41;;;26.95;37.61
29379;BME280;16362;47.202;15.258;2022-07-06T10:26:55;96444.81;;;26.86;36.10
29379;BME280;16362;47.202;15.258;2022-07-06T10:29:23;96440.41;;;26.59;36.77
29379;BME280;16362;47.202;15.258;2022-07-06T10:31:51;96442.00;;;26.34;36.66
29379;BME280;16362;47.202;15.258;2022-07-06T10:34:19;96440.38;;;26.44;39.15
29379;BME280;16362;47.202;15.258;2022-07-06T10:36:51;96443.06;;;26.08;35.59
29379;BME280;16362;47.202;15.258;2022-07-06T10:39:36;96441.97;;;26.14;37.71
29379;BME280;16362;47.202;15.258;2022-07-06T10:42:44;96439.00;;;26.20;37.36
29379;BME280;16362;47.202;15.258;2022-07-06T10:45:14;96447.47;;;26.19;41.23
29379;BME280;16362;47.202;15.258;2022-07-06T10:47:41;96441.97;;;26.09;46.73
29379;BME280;16362;47.202;15.258;2022-07-06T10:50:08;96440.34;;;26.18;48.02
29379;BME280;16362;47.202;15.258;2022-07-06T10:52:53;96439.81;;;26.26;42.08
29379;BME280;16362;47.202;15.258;2022-07-06T10:55:35;96451.28;;;26.18;44.48
29379;BME280;16362;47.202;15.258;2022-07-06T10:58:03;96455.66;;;26.03;45.02
29379;BME280;16362;47.202;15.258;2022-07-06T11:00:52;96448.53;;;26.08;46.80
29379;BME280;16362;47.202;15.258;2022-07-06T11:03:45;96435.16;;;26.16;41.36
29379;BME280;16362;47.202;15.258;2022-07-06T11:06:20;96433.28;;;26.48;38.54
29379;BME280;16362;47.202;15.258;2022-07-06T11:09:00;96425.38;;;26.82;40.77
29379;BME280;16362;47.202;15.258;2022-07-06T11:14:03;96425.00;;;27.35;42.25
29379;BME280;16362;47.202;15.258;2022-07-06T11:16:32;96417.97;;;26.67;31.67
29379;BME280;16362;47.202;15.258;2022-07-06T11:19:07;96423.47;;;26.72;39.08
29379;BME280;16362;47.202;15.258;2022-07-06T11:21:46;96419.34;;;26.65;36.35
29379;BME280;16362;47.202;15.258;2022-07-06T11:24:16;96421.78;;;26.25;35.62
29379;BME280;16362;47.202;15.258;2022-07-06T11:26:45;96427.78;;;26.17;40.60
29379;BME280;16362;47.202;15.258;2022-07-06T11:29:13;96416.31;;;26.25;37.77
29379;BME280;16362;47.202;15.258;2022-07-06T11:31:42;96421.53;;;26.52;39.99
29379;BME280;16362;47.202;15.258;2022-07-06T11:34:11;96422.91;;;26.55;34.56
29379;BME280;16362;47.202;15.258;2022-07-06T11:36:38;96424.81;;;26.60;33.80
29379;BME280;16362;47.202;15.258;2022-07-06T11:39:11;96420.69;;;26.52;33.06
29379;BME280;16362;47.202;15.258;2022-07-06T11:41:38;96418.22;;;26.50;34.08
29379;BME280;16362;47.202;15.258;2022-07-06T11:44:05;96410.31;;;26.64;37.68
29379;BME280;16362;47.202;15.258;2022-07-06T11:46:33;96414.13;;;26.53;36.75
29379;BME280;16362;47.202;15.258;2022-07-06T11:49:05;96408.13;;;26.46;36.92
29379;BME280;16362;47.202;15.258;2022-07-06T11:51:37;96411.13;;;26.44;36.08
29379;BME280;16362;47.202;15.258;2022-07-06T11:54:13;96409.50;;;26.48;37.98
29379;BME280;16362;47.202;15.258;2022-07-06T11:56:50;96407.31;;;26.66;38.20
29379;BME280;16362;47.202;15.258;2022-07-06T11:59:28;96408.66;;;26.58;32.72
29379;BME280;16362;47.202;15.258;2022-07-06T12:02:01;96403.19;;;26.68;34.71
29379;BME280;16362;47.202;15.258;2022-07-06T12:04:30;96400.19;;;26.91;32.15
29379;BME280;16362;47.202;15.258;2022-07-06T12:07:02;96395.00;;;26.79;42.01
29379;BME280;16362;47.202;15.258;2022-07-06T12:09:34;96397.16;;;26.97;41.30
29379;BME280;16362;47.202;15.258;2022-07-06T12:12:02;96392.75;;;27.06;38.79
29379;BME280;16362;47.202;15.258;2022-07-06T12:14:32;96389.22;;;26.91;33.21
29379;BME280;16362;47.202;15.258;2022-07-06T12:17:06;96382.63;;;27.07;38.98
29379;BME280;16362;47.202;15.258;2022-07-06T12:19:34;96381.25;;;27.04;42.65
29379;BME280;16362;47.202;15.258;2022-07-06T12:22:02;96374.69;;;27.05;40.28
29379;BME280;16362;47.202;15.258;2022-07-06T12:24:30;96378.81;;;26.93;35.34
29379;BME280;16362;47.202;15.258;2022-07-06T12:26:58;96388.94;;;26.97;34.64
29379;BME280;16362;47.202;15.258;2022-07-06T12:29:35;96387.31;;;26.91;30.38
29379;BME280;16362;47.202;15.258;2022-07-06T12:32:02;96378.28;;;26.91;32.32
29379;BME280;16362;47.202;15.258;2022-07-06T12:34:29;96376.28;;;27.17;40.49
29379;BME280;16362;47.202;15.258;2022-07-06T12:36:59;96374.66;;;27.16;35.82
29379;BME280;16362;47.202;15.258;2022-07-06T12:39:39;96374.66;;;27.16;41.25
29379;BME280;16362;47.202;15.258;2022-07-06T12:42:07;96373.31;;;27.13;37.23
29379;BME280;16362;47.202;15.258;2022-07-06T12:44:44;96371.97;;;27.00;39.70
29379;BME280;16362;47.202;15.258;2022-07-06T12:47:12;96376.91;;;26.93;38.07
29379;BME280;16362;47.202;15.258;2022-07-06T12:49:39;96370.34;;;26.89;34.84
29379;BME280;16362;47.202;15.258;2022-07-06T12:54:35;96360.50;;;26.83;35.47
29379;BME280;16362;47.202;15.258;2022-07-06T12:59:39;96364.28;;;25.99;44.75
29379;BME280;16362;47.202;15.258;2022-07-06T13:02:07;96360.41;;;25.80;48.09
29379;BME280;16362;47.202;15.258;2022-07-06T13:04:36;96353.03;;;25.80;46.47